sensor_id;sensor_type;location;lat;lon;timestamp;pressure;altitude;pressure_sealevel;temperature;humidity
39793;BME280;26080;42.264;24.536;2023-02-18T00:02:16;100082.75;;;2.49;91.84
39793;BME280;26080;42.264;24.536;2023-02-18T00:04:41;100078.41;;;2.57;90.76
39793;BME280;26080;42.264;24.536;2023-02-18T00:07:06;100078.41;;;2.65;89.79
39793;BME280;26080;42.264;24.536;2023-02-18T00:09:32;100076.69;;;2.62;89.13
39793;BME280;26080;42.264;24.536;2023-02-18T00:11:57;100074.97;;;2.61;88.73
39793;BME280;26080;42.264;24.536;2023-02-18T00:14:23;100081.81;;;2.76;87.75
39793;BME280;26080;42.264;24.536;2023-02-18T00:16:48;100084.38;;;2.79;87.36
39793;BME280;26080;42.264;24.536;2023-02-18T00:19:16;100071.44;;;2.84;86.90
39793;BME280;26080;42.264;24.536;2023-02-18T00:21:42;100080.88;;;2.94;86.91
39793;BME280;26080;42.264;24.536;2023-02-18T00:24:10;100053.34;;;2.81;86.59
39793;BME280;26080;42.264;24.536;2023-02-18T00:26:37;100064.47;;;3.04;87.05
39793;BME280;26080;42.264;24.536;2023-02-18T00:29:03;100071.38;;;2.99;86.76
39793;BME280;26080;42.264;24.536;2023-02-18T00:31:30;100067.94;;;2.97;87.05
39793;BME280;26080;42.264;24.536;2023-02-18T00:33:57;100058.50;;;2.88;87.52
39793;BME280;26080;42.264;24.536;2023-02-18T00:36:23;100053.31;;;2.90;87.68
39793;BME280;26080;42.264;24.536;2023-02-18T00:38:52;100047.28;;;2.85;87.52
39793;BME280;26080;42.264;24.536;2023-02-18T00:41:18;100044.72;;;2.79;88.85
39793;BME280;26080;42.264;24.536;2023-02-18T00:43:44;100027.53;;;2.68;88.90
39793;BME280;26080;42.264;24.536;2023-02-18T00:46:10;100031.81;;;2.73;88.87
39793;BME280;26080;42.264;24.536;2023-02-18T00:48:36;100028.34;;;2.81;87.93
39793;BME280;26080;42.264;24.536;2023-02-18T00:51:02;99998.22;;;2.66;87.92
39793;BME280;26080;42.264;24.536;2023-02-18T00:53:28;100028.28;;;2.92;87.58
39793;BME280;26080;42.264;24.536;2023-02-18T00:55:54;100019.69;;;2.88;88.47
39793;BME280;26080;42.264;24.536;2023-02-18T00:58:20;100005.00;;;2.92;88.99
39793;BME280;26080;42.264;24.536;2023-02-18T01:00:45;100004.94;;;3.03;88.20
39793;BME280;26080;42.264;24.536;2023-02-18T01:03:11;99984.91;;;3.34;86.67
39793;BME280;26080;42.264;24.536;2023-02-18T01:05:38;99977.06;;;3.41;86.47
39793;BME280;26080;42.264;24.536;2023-02-18T01:08:04;99976.16;;;3.47;85.71
39793;BME280;26080;42.264;24.536;2023-02-18T01:10:30;99973.50;;;3.59;84.90
39793;BME280;26080;42.264;24.536;2023-02-18T01:12:56;99970.88;;;3.62;84.71
39793;BME280;26080;42.264;24.536;2023-02-18T01:15:22;99962.28;;;3.54;85.12
39793;BME280;26080;42.264;24.536;2023-02-18T01:17:48;99968.44;;;3.44;85.41
39793;BME280;26080;42.264;24.536;2023-02-18T01:20:14;99955.53;;;3.35;85.64
39793;BME280;26080;42.264;24.536;2023-02-18T01:22:40;99951.25;;;3.34;85.78
39793;BME280;26080;42.264;24.536;2023-02-18T01:25:07;99964.13;;;3.40;84.95
39793;BME280;26080;42.264;24.536;2023-02-18T01:27:32;99955.53;;;3.35;85.05
39793;BME280;26080;42.264;24.536;2023-02-18T01:29:58;99953.78;;;3.40;84.00
39793;BME280;26080;42.264;24.536;2023-02-18T01:32:23;99957.25;;;3.36;84.34
39793;BME280;26080;42.264;24.536;2023-02-18T01:34:49;99965.88;;;3.38;84.05
39793;BME280;26080;42.264;24.536;2023-02-18T01:37:15;99959.91;;;3.28;83.49
39793;BME280;26080;42.264;24.536;2023-02-18T01:39:40;99947.06;;;3.17;83.97
39793;BME280;26080;42.264;24.536;2023-02-18T01:42:06;99960.91;;;3.09;84.54
39793;BME280;26080;42.264;24.536;2023-02-18T01:44:32;99957.50;;;2.99;85.21
39793;BME280;26080;42.264;24.536;2023-02-18T01:46:58;99973.84;;;3.07;84.57
39793;BME280;26080;42.264;24.536;2023-02-18T01:49:33;99973.88;;;3.01;85.52
39793;BME280;26080;42.264;24.536;2023-02-18T01:52:06;99958.31;;;3.09;84.63
39793;BME280;26080;42.264;24.536;2023-02-18T01:54:40;99958.34;;;3.01;85.87
39793;BME280;26080;42.264;24.536;2023-02-18T01:57:10;99941.91;;;3.11;85.12
39793;BME280;26080;42.264;24.536;2023-02-18T02:02:12;99953.22;;;2.98;86.26
39793;BME280;26080;42.264;24.536;2023-02-18T02:04:39;99943.69;;;3.05;85.42
39793;BME280;26080;42.264;24.536;2023-02-18T02:07:05;99962.69;;;3.02;86.22
39793;BME280;26080;42.264;24.536;2023-02-18T02:09:33;99953.22;;;2.95;86.53
39793;BME280;26080;42.264;24.536;2023-02-18T02:15:38;99956.75;;;2.82;87.32
39793;BME280;26080;42.264;24.536;2023-02-18T02:24:15;99970.72;;;2.41;91.10
39793;BME280;26080;42.264;24.536;2023-02-18T02:35:04;99964.66;;;2.51;89.66
39793;BME280;26080;42.264;24.536;2023-02-18T02:40:45;99950.94;;;2.37;90.57
39793;BME280;26080;42.264;24.536;2023-02-18T02:46:07;99954.38;;;2.33;91.92
39793;BME280;26080;42.264;24.536;2023-02-18T02:53:36;99902.47;;;2.79;88.70
39793;BME280;26080;42.264;24.536;2023-02-18T02:56:03;99946.84;;;3.45;85.77
39793;BME280;26080;42.264;24.536;2023-02-18T02:58:29;99939.72;;;3.71;83.53
39793;BME280;26080;42.264;24.536;2023-02-18T03:01:16;99937.56;;;4.10;81.04
39793;BME280;26080;42.264;24.536;2023-02-18T03:07:01;99934.41;;;4.59;76.33
39793;BME280;26080;42.264;24.536;2023-02-18T03:10:10;99936.50;;;4.95;73.92
39793;BME280;26080;42.264;24.536;2023-02-18T03:12:48;99931.19;;;5.01;73.31
39793;BME280;26080;42.264;24.536;2023-02-18T03:18:07;99942.50;;;4.99;72.83
39793;BME280;26080;42.264;24.536;2023-02-18T03:20:55;99927.94;;;4.87;73.21
39793;BME280;26080;42.264;24.536;2023-02-18T03:23:29;99946.06;;;4.90;73.03
39793;BME280;26080;42.264;24.536;2023-02-18T03:25:58;99933.09;;;4.90;73.22
39793;BME280;26080;42.264;24.536;2023-02-18T03:28:27;99932.28;;;4.87;73.30
39793;BME280;26080;42.264;24.536;2023-02-18T03:30:59;99940.88;;;4.90;73.49
39793;BME280;26080;42.264;24.536;2023-02-18T03:33:34;99913.69;;;4.56;75.54
39793;BME280;26080;42.264;24.536;2023-02-18T03:36:01;99955.53;;;4.27;78.22
39793;BME280;26080;42.264;24.536;2023-02-18T03:38:54;99930.19;;;3.73;80.25
39793;BME280;26080;42.264;24.536;2023-02-18T03:41:23;99938.97;;;3.59;81.60
39793;BME280;26080;42.264;24.536;2023-02-18T03:43:52;99962.97;;;3.76;82.20
39793;BME280;26080;42.264;24.536;2023-02-18T03:46:19;99963.03;;;3.71;82.93
39793;BME280;26080;42.264;24.536;2023-02-18T03:48:45;99970.03;;;3.55;83.91
39793;BME280;26080;42.264;24.536;2023-02-18T03:51:10;99965.81;;;3.42;84.34
39793;BME280;26080;42.264;24.536;2023-02-18T03:53:36;99965.84;;;3.41;84.50
39793;BME280;26080;42.264;24.536;2023-02-18T03:56:02;99971.88;;;3.44;83.98
39793;BME280;26080;42.264;24.536;2023-02-18T03:58:27;99967.47;;;3.57;82.59
39793;BME280;26080;42.264;24.536;2023-02-18T04:00:52;99935.47;;;3.63;81.07
39793;BME280;26080;42.264;24.536;2023-02-18T04:03:18;99959.34;;;3.94;79.89
39793;BME280;26080;42.264;24.536;2023-02-18T04:05:43;99958.28;;;4.13;78.64
39793;BME280;26080;42.264;24.536;2023-02-18T04:08:09;99965.94;;;4.25;77.36
39793;BME280;26080;42.264;24.536;2023-02-18T04:10:34;99949.63;;;4.15;77.44
39793;BME280;26080;42.264;24.536;2023-02-18T04:13:00;99948.00;;;4.04;78.54
39793;BME280;26080;42.264;24.536;2023-02-18T04:15:25;99944.63;;;3.96;79.20
39793;BME280;26080;42.264;24.536;2023-02-18T04:17:51;99967.06;;;4.01;79.40
39793;BME280;26080;42.264;24.536;2023-02-18T04:20:17;99979.16;;;4.01;79.96
39793;BME280;26080;42.264;24.536;2023-02-18T04:22:42;99981.81;;;3.92;80.05
39793;BME280;26080;42.264;24.536;2023-02-18T04:25:07;99987.09;;;3.84;80.84
39793;BME280;26080;42.264;24.536;2023-02-18T04:27:33;99991.50;;;3.73;81.47
39793;BME280;26080;42.264;24.536;2023-02-18T04:29:59;99991.56;;;3.65;81.66
39793;BME280;26080;42.264;24.536;2023-02-18T04:32:24;99989.00;;;3.61;82.68
39793;BME280;26080;42.264;24.536;2023-02-18T04:34:50;99985.59;;;3.54;83.36
39793;BME280;26080;42.264;24.536;2023-02-18T04:37:15;99981.31;;;3.50;83.83
39793;BME280;26080;42.264;24.536;2023-02-18T04:39:41;99977.88;;;3.49;84.44
39793;BME280;26080;42.264;24.536;2023-02-18T04:42:06;99972.75;;;3.40;85.41
39793;BME280;26080;42.264;24.536;2023-02-18T04:44:37;99946.16;;;3.21;86.23
39793;BME280;26080;42.264;24.536;2023-02-18T04:47:06;99945.41;;;3.01;87.13
39793;BME280;26080;42.264;24.536;2023-02-18T04:49:32;99973.00;;;3.08;87.64
39793;BME280;26080;42.264;24.536;2023-02-18T04:51:58;99980.78;;;3.01;88.04
39793;BME280;26080;42.264;24.536;2023-02-18T04:54:23;99969.69;;;2.82;89.53
39793;BME280;26080;42.264;24.536;2023-02-18T04:56:49;99984.34;;;2.81;89.79
39793;BME280;26080;42.264;24.536;2023-02-18T04:59:14;99982.59;;;2.89;89.49
39793;BME280;26080;42.264;24.536;2023-02-18T05:01:43;99983.34;;;3.07;88.56
39793;BME280;26080;42.264;24.536;2023-02-18T05:04:09;99986.75;;;3.13;87.42
39793;BME280;26080;42.264;24.536;2023-02-18T05:06:35;99983.22;;;3.26;86.78
39793;BME280;26080;42.264;24.536;2023-02-18T05:09:03;99980.56;;;3.36;85.65
39793;BME280;26080;42.264;24.536;2023-02-18T05:11:29;99979.53;;;3.58;84.07
39793;BME280;26080;42.264;24.536;2023-02-18T05:13:55;99977.69;;;3.69;82.89
39793;BME280;26080;42.264;24.536;2023-02-18T05:16:20;99981.97;;;3.76;83.20
39793;BME280;26080;42.264;24.536;2023-02-18T05:18:46;99956.97;;;3.72;82.95
39793;BME280;26080;42.264;24.536;2023-02-18T05:21:11;99971.41;;;3.98;81.80
39793;BME280;26080;42.264;24.536;2023-02-18T05:23:36;99972.25;;;4.00;81.68
39793;BME280;26080;42.264;24.536;2023-02-18T05:26:02;99968.06;;;3.86;83.00
39793;BME280;26080;42.264;24.536;2023-02-18T05:28:28;99981.94;;;3.79;83.46
39793;BME280;26080;42.264;24.536;2023-02-18T05:30:54;99979.22;;;3.92;81.54
39793;BME280;26080;42.264;24.536;2023-02-18T05:33:19;99979.97;;;4.04;81.26
39793;BME280;26080;42.264;24.536;2023-02-18T05:35:45;99976.50;;;4.05;82.33
39793;BME280;26080;42.264;24.536;2023-02-18T05:38:10;99980.88;;;3.97;82.10
39793;BME280;26080;42.264;24.536;2023-02-18T05:40:37;99980.09;;;3.91;82.63
39793;BME280;26080;42.264;24.536;2023-02-18T05:43:02;99978.44;;;3.82;83.14
39793;BME280;26080;42.264;24.536;2023-02-18T05:45:28;99979.38;;;3.76;83.90
39793;BME280;26080;42.264;24.536;2023-02-18T05:47:53;99972.47;;;3.75;83.52
39793;BME280;26080;42.264;24.536;2023-02-18T05:50:19;99960.44;;;3.71;84.32
39793;BME280;26080;42.264;24.536;2023-02-18T05:52:44;99953.41;;;3.82;84.17
39793;BME280;26080;42.264;24.536;2023-02-18T05:55:10;99966.22;;;3.99;83.85
39793;BME280;26080;42.264;24.536;2023-02-18T05:57:35;99965.16;;;4.17;83.58
39793;BME280;26080;42.264;24.536;2023-02-18T06:00:01;99951.13;;;4.33;81.43
39793;BME280;26080;42.264;24.536;2023-02-18T06:02:26;99965.44;;;4.65;80.62
39793;BME280;26080;42.264;24.536;2023-02-18T06:04:52;99963.59;;;4.74;79.76
39793;BME280;26080;42.264;24.536;2023-02-18T06:07:17;99951.22;;;4.93;79.07
39793;BME280;26080;42.264;24.536;2023-02-18T06:09:45;99963.22;;;5.02;78.17
39793;BME280;26080;42.264;24.536;2023-02-18T06:12:10;99961.88;;;5.33;75.08
39793;BME280;26080;42.264;24.536;2023-02-18T06:14:36;99962.41;;;5.55;73.10
39793;BME280;26080;42.264;24.536;2023-02-18T06:17:02;99969.94;;;5.71;71.92
39793;BME280;26080;42.264;24.536;2023-02-18T06:19:27;99966.19;;;5.87;71.39
39793;BME280;26080;42.264;24.536;2023-02-18T06:21:53;99975.66;;;5.92;70.49
39793;BME280;26080;42.264;24.536;2023-02-18T06:24:20;99972.97;;;5.97;70.42
39793;BME280;26080;42.264;24.536;2023-02-18T06:26:45;99979.59;;;6.13;69.34
39793;BME280;26080;42.264;24.536;2023-02-18T06:29:11;99974.13;;;6.29;68.21
39793;BME280;26080;42.264;24.536;2023-02-18T06:31:36;99963.47;;;6.41;67.68
39793;BME280;26080;42.264;24.536;2023-02-18T06:34:02;99952.72;;;6.59;66.23
39793;BME280;26080;42.264;24.536;2023-02-18T06:36:30;99916.13;;;6.65;66.10
39793;BME280;26080;42.264;24.536;2023-02-18T06:38:55;99938.03;;;6.95;65.95
39793;BME280;26080;42.264;24.536;2023-02-18T06:41:23;99886.25;;;6.81;66.15
39793;BME280;26080;42.264;24.536;2023-02-18T06:43:49;99926.94;;;7.24;65.68
39793;BME280;26080;42.264;24.536;2023-02-18T06:46:15;99903.44;;;7.27;65.16
39793;BME280;26080;42.264;24.536;2023-02-18T06:48:40;99922.66;;;7.57;64.25
39793;BME280;26080;42.264;24.536;2023-02-18T06:51:06;99916.84;;;7.80;63.91
39793;BME280;26080;42.264;24.536;2023-02-18T06:53:32;99923.63;;;7.87;63.55
39793;BME280;26080;42.264;24.536;2023-02-18T06:55:58;99922.31;;;8.03;63.37
39793;BME280;26080;42.264;24.536;2023-02-18T06:58:23;99916.81;;;8.14;63.01
39793;BME280;26080;42.264;24.536;2023-02-18T07:00:49;99918.41;;;8.18;61.60
39793;BME280;26080;42.264;24.536;2023-02-18T07:03:14;99918.31;;;8.21;61.64
39793;BME280;26080;42.264;24.536;2023-02-18T07:05:40;99900.44;;;8.09;60.88
39793;BME280;26080;42.264;24.536;2023-02-18T07:08:06;99937.25;;;8.29;61.38
39793;BME280;26080;42.264;24.536;2023-02-18T07:10:32;99932.03;;;8.29;60.48
39793;BME280;26080;42.264;24.536;2023-02-18T07:12:57;99927.66;;;8.30;60.50
39793;BME280;26080;42.264;24.536;2023-02-18T07:15:23;99919.72;;;8.35;60.74
39793;BME280;26080;42.264;24.536;2023-02-18T07:17:52;99907.53;;;8.37;60.49
39793;BME280;26080;42.264;24.536;2023-02-18T07:20:18;99913.31;;;8.46;60.51
39793;BME280;26080;42.264;24.536;2023-02-18T07:22:44;99865.03;;;8.30;60.85
39793;BME280;26080;42.264;24.536;2023-02-18T07:25:10;99905.63;;;8.71;61.63
39793;BME280;26080;42.264;24.536;2023-02-18T07:27:44;99873.28;;;8.75;61.81
39793;BME280;26080;42.264;24.536;2023-02-18T07:30:12;99889.16;;;8.97;60.26
39793;BME280;26080;42.264;24.536;2023-02-18T07:32:38;99888.88;;;9.06;60.34
39793;BME280;26080;42.264;24.536;2023-02-18T07:35:04;99888.44;;;9.20;60.61
39793;BME280;26080;42.264;24.536;2023-02-18T07:37:31;99885.31;;;9.35;59.68
39793;BME280;26080;42.264;24.536;2023-02-18T07:39:56;99900.69;;;9.69;58.79
39793;BME280;26080;42.264;24.536;2023-02-18T07:42:22;99891.75;;;10.01;56.52
39793;BME280;26080;42.264;24.536;2023-02-18T07:44:47;99848.91;;;10.04;55.51
39793;BME280;26080;42.264;24.536;2023-02-18T07:47:14;99876.47;;;10.61;56.44
39793;BME280;26080;42.264;24.536;2023-02-18T07:49:43;99876.84;;;10.95;54.34
39793;BME280;26080;42.264;24.536;2023-02-18T07:52:08;99870.28;;;11.29;53.53
39793;BME280;26080;42.264;24.536;2023-02-18T07:54:34;99858.88;;;11.50;52.02
39793;BME280;26080;42.264;24.536;2023-02-18T07:57:00;99841.44;;;11.49;50.47
39793;BME280;26080;42.264;24.536;2023-02-18T07:59:25;99871.81;;;11.75;51.07
39793;BME280;26080;42.264;24.536;2023-02-18T08:01:51;99855.91;;;11.80;50.82
39793;BME280;26080;42.264;24.536;2023-02-18T08:04:16;99864.03;;;11.94;50.65
39793;BME280;26080;42.264;24.536;2023-02-18T08:06:44;99869.53;;;12.08;49.89
39793;BME280;26080;42.264;24.536;2023-02-18T08:09:11;99860.88;;;12.25;48.60
39793;BME280;26080;42.264;24.536;2023-02-18T08:11:37;99861.81;;;12.43;46.77
39793;BME280;26080;42.264;24.536;2023-02-18T08:14:06;99850.75;;;12.55;46.21
39793;BME280;26080;42.264;24.536;2023-02-18T08:16:32;99847.31;;;12.72;44.53
39793;BME280;26080;42.264;24.536;2023-02-18T08:18:58;99844.97;;;12.85;43.90
39793;BME280;26080;42.264;24.536;2023-02-18T08:21:24;99824.00;;;12.83;43.87
39793;BME280;26080;42.264;24.536;2023-02-18T08:23:50;99838.03;;;13.01;44.91
39793;BME280;26080;42.264;24.536;2023-02-18T08:26:16;99824.09;;;12.99;43.72
39793;BME280;26080;42.264;24.536;2023-02-18T08:28:44;99832.78;;;13.01;43.15
39793;BME280;26080;42.264;24.536;2023-02-18T08:31:30;99832.19;;;13.13;43.19
39793;BME280;26080;42.264;24.536;2023-02-18T08:33:57;99839.66;;;13.22;42.72
39793;BME280;26080;42.264;24.536;2023-02-18T08:36:23;99840.25;;;13.27;43.05
39793;BME280;26080;42.264;24.536;2023-02-18T08:38:49;99824.47;;;13.27;42.60
39793;BME280;26080;42.264;24.536;2023-02-18T08:41:15;99836.16;;;13.39;42.29
39793;BME280;26080;42.264;24.536;2023-02-18T08:43:43;99842.69;;;13.49;43.47
39793;BME280;26080;42.264;24.536;2023-02-18T08:46:09;99838.66;;;13.59;43.33
39793;BME280;26080;42.264;24.536;2023-02-18T08:48:35;99836.72;;;13.63;44.79
39793;BME280;26080;42.264;24.536;2023-02-18T08:51:19;99829.44;;;13.68;42.60
39793;BME280;26080;42.264;24.536;2023-02-18T08:53:45;99796.13;;;13.67;43.25
39793;BME280;26080;42.264;24.536;2023-02-18T08:56:12;99825.22;;;13.81;42.28
39793;BME280;26080;42.264;24.536;2023-02-18T08:58:39;99831.88;;;13.88;42.52
39793;BME280;26080;42.264;24.536;2023-02-18T09:01:07;99814.22;;;13.90;42.57
39793;BME280;26080;42.264;24.536;2023-02-18T09:03:33;99826.97;;;14.31;40.44
39793;BME280;26080;42.264;24.536;2023-02-18T09:05:59;99793.06;;;14.41;39.26
39793;BME280;26080;42.264;24.536;2023-02-18T09:08:26;99811.69;;;14.85;38.25
39793;BME280;26080;42.264;24.536;2023-02-18T09:10:59;99821.31;;;14.86;37.28
39793;BME280;26080;42.264;24.536;2023-02-18T09:13:25;99804.59;;;15.01;36.94
39793;BME280;26080;42.264;24.536;2023-02-18T09:16:01;99810.25;;;14.95;36.66
39793;BME280;26080;42.264;24.536;2023-02-18T09:18:29;99817.72;;;14.87;37.06
39793;BME280;26080;42.264;24.536;2023-02-18T09:20:56;99821.47;;;14.83;37.64
39793;BME280;26080;42.264;24.536;2023-02-18T09:23:23;99809.06;;;14.69;36.84
39793;BME280;26080;42.264;24.536;2023-02-18T09:25:48;99835.59;;;14.82;36.95
39793;BME280;26080;42.264;24.536;2023-02-18T09:28:14;99830.16;;;14.69;36.57
39793;BME280;26080;42.264;24.536;2023-02-18T09:30:39;99824.44;;;14.77;36.44
39793;BME280;26080;42.264;24.536;2023-02-18T09:33:05;99803.72;;;14.71;36.69
39793;BME280;26080;42.264;24.536;2023-02-18T09:35:30;99815.28;;;14.84;36.85
39793;BME280;26080;42.264;24.536;2023-02-18T09:37:56;99817.22;;;14.96;36.21
39793;BME280;26080;42.264;24.536;2023-02-18T09:40:28;99821.94;;;15.05;36.44
39793;BME280;26080;42.264;24.536;2023-02-18T09:42:55;99820.91;;;15.24;35.47
39793;BME280;26080;42.264;24.536;2023-02-18T09:45:22;99815.88;;;15.49;36.00
39793;BME280;26080;42.264;24.536;2023-02-18T09:47:49;99812.34;;;15.64;35.64
39793;BME280;26080;42.264;24.536;2023-02-18T09:50:20;99802.66;;;15.79;34.67
39793;BME280;26080;42.264;24.536;2023-02-18T09:52:46;99803.31;;;15.83;33.81
39793;BME280;26080;42.264;24.536;2023-02-18T09:55:26;99795.94;;;16.16;33.98
39793;BME280;26080;42.264;24.536;2023-02-18T10:00:44;99777.13;;;16.49;33.42
39793;BME280;26080;42.264;24.536;2023-02-18T10:03:19;99789.44;;;16.77;33.92
39793;BME280;26080;42.264;24.536;2023-02-18T10:08:42;99773.22;;;16.69;32.74
39793;BME280;26080;42.264;24.536;2023-02-18T10:11:23;99786.59;;;16.66;33.72
39793;BME280;26080;42.264;24.536;2023-02-18T10:13:53;99771.69;;;16.65;33.20
39793;BME280;26080;42.264;24.536;2023-02-18T10:16:19;99765.44;;;16.66;33.74
39793;BME280;26080;42.264;24.536;2023-02-18T10:18:56;99768.09;;;16.66;32.76
39793;BME280;26080;42.264;24.536;2023-02-18T10:21:28;99756.41;;;16.56;32.77
39793;BME280;26080;42.264;24.536;2023-02-18T10:24:05;99760.25;;;16.65;32.68
39793;BME280;26080;42.264;24.536;2023-02-18T10:26:35;99747.75;;;16.81;33.08
39793;BME280;26080;42.264;24.536;2023-02-18T10:29:02;99746.84;;;16.95;32.98
39793;BME280;26080;42.264;24.536;2023-02-18T10:31:35;99738.69;;;16.98;32.28
39793;BME280;26080;42.264;24.536;2023-02-18T10:36:47;99717.75;;;16.95;31.81
39793;BME280;26080;42.264;24.536;2023-02-18T10:40:09;99692.56;;;16.62;31.65
39793;BME280;26080;42.264;24.536;2023-02-18T10:42:35;99734.47;;;16.95;31.14
39793;BME280;26080;42.264;24.536;2023-02-18T10:45:25;99705.00;;;17.14;31.93
39793;BME280;26080;42.264;24.536;2023-02-18T10:48:04;99707.22;;;17.33;32.21
39793;BME280;26080;42.264;24.536;2023-02-18T10:50:43;99694.09;;;17.57;29.94
39793;BME280;26080;42.264;24.536;2023-02-18T10:53:36;99700.03;;;17.73;30.25
39793;BME280;26080;42.264;24.536;2023-02-18T10:56:05;99702.09;;;17.93;30.33
39793;BME280;26080;42.264;24.536;2023-02-18T10:58:46;99705.72;;;17.92;30.95
39793;BME280;26080;42.264;24.536;2023-02-18T11:01:19;99696.88;;;18.04;30.52
39793;BME280;26080;42.264;24.536;2023-02-18T11:03:50;99692.53;;;18.03;30.96
39793;BME280;26080;42.264;24.536;2023-02-18T11:06:40;99686.25;;;18.17;30.56
39793;BME280;26080;42.264;24.536;2023-02-18T11:10:09;99688.00;;;17.93;30.14
39793;BME280;26080;42.264;24.536;2023-02-18T11:12:06;99689.31;;;17.87;29.92
39793;BME280;26080;42.264;24.536;2023-02-18T11:14:41;99672.69;;;17.85;30.08
39793;BME280;26080;42.264;24.536;2023-02-18T11:17:34;99664.03;;;17.94;30.26
39793;BME280;26080;42.264;24.536;2023-02-18T11:23:18;99666.91;;;18.28;30.63
39793;BME280;26080;42.264;24.536;2023-02-18T11:28:31;99666.41;;;18.47;29.76
39793;BME280;26080;42.264;24.536;2023-02-18T11:31:01;99654.94;;;18.46;29.60
39793;BME280;26080;42.264;24.536;2023-02-18T11:33:42;99658.72;;;18.55;29.82
39793;BME280;26080;42.264;24.536;2023-02-18T11:38:48;99655.31;;;18.66;30.31
39793;BME280;26080;42.264;24.536;2023-02-18T11:41:17;99653.16;;;18.71;30.42
39793;BME280;26080;42.264;24.536;2023-02-18T11:43:49;99638.69;;;18.75;30.30
39793;BME280;26080;42.264;24.536;2023-02-18T11:46:21;99648.69;;;18.71;29.78
39793;BME280;26080;42.264;24.536;2023-02-18T11:48:47;99643.00;;;18.64;29.18
39793;BME280;26080;42.264;24.536;2023-02-18T11:51:29;99641.28;;;18.63;30.03
39793;BME280;26080;42.264;24.536;2023-02-18T11:54:05;99645.72;;;18.63;29.78
39793;BME280;26080;42.264;24.536;2023-02-18T11:57:05;99630.13;;;18.71;29.84
39793;BME280;26080;42.264;24.536;2023-02-18T11:59:34;99621.78;;;18.64;30.08
39793;BME280;26080;42.264;24.536;2023-02-18T12:05:04;99633.25;;;18.76;29.69
39793;BME280;26080;42.264;24.536;2023-02-18T12:10:13;99620.59;;;18.69;29.65
39793;BME280;26080;42.264;24.536;2023-02-18T12:12:47;99618.19;;;18.77;29.62
39793;BME280;26080;42.264;24.536;2023-02-18T12:15:23;99621.94;;;18.74;29.88
39793;BME280;26080;42.264;24.536;2023-02-18T12:27:21;99618.00;;;18.32;30.82
39793;BME280;26080;42.264;24.536;2023-02-18T12:29:55;99612.88;;;18.42;31.38
39793;BME280;26080;42.264;24.536;2023-02-18T12:35:48;99609.91;;;18.57;30.22
39793;BME280;26080;42.264;24.536;2023-02-18T12:41:16;99595.19;;;18.53;30.34
39793;BME280;26080;42.264;24.536;2023-02-18T12:52:30;99590.09;;;18.74;30.98
39793;BME280;26080;42.264;24.536;2023-02-18T12:58:40;99580.38;;;18.62;30.77
39793;BME280;26080;42.264;24.536;2023-02-18T13:01:23;99574.78;;;18.67;30.50
39793;BME280;26080;42.264;24.536;2023-02-18T13:09:57;99570.13;;;18.57;29.93
39793;BME280;26080;42.264;24.536;2023-02-18T13:15:10;99559.47;;;18.46;30.25
39793;BME280;26080;42.264;24.536;2023-02-18T13:17:38;99569.41;;;18.55;30.32
39793;BME280;26080;42.264;24.536;2023-02-18T13:20:33;99571.31;;;18.53;30.42
39793;BME280;26080;42.264;24.536;2023-02-18T13:23:02;99568.44;;;18.56;30.33
39793;BME280;26080;42.264;24.536;2023-02-18T13:25:33;99564.53;;;18.49;29.79
39793;BME280;26080;42.264;24.536;2023-02-18T13:28:06;99561.41;;;18.44;30.77
39793;BME280;26080;42.264;24.536;2023-02-18T13:30:48;99562.72;;;18.50;30.65
39793;BME280;26080;42.264;24.536;2023-02-18T13:33:19;99561.69;;;18.52;31.10
39793;BME280;26080;42.264;24.536;2023-02-18T13:41:26;99542.97;;;18.78;30.11
39793;BME280;26080;42.264;24.536;2023-02-18T13:43:52;99555.25;;;18.90;30.06
39793;BME280;26080;42.264;24.536;2023-02-18T13:46:22;99565.16;;;18.88;30.30
39793;BME280;26080;42.264;24.536;2023-02-18T13:54:41;99554.44;;;19.12;29.91
39793;BME280;26080;42.264;24.536;2023-02-18T13:57:00;99547.31;;;19.12;29.97
39793;BME280;26080;42.264;24.536;2023-02-18T13:59:40;99513.53;;;18.81;30.23
39793;BME280;26080;42.264;24.536;2023-02-18T14:02:34;99546.56;;;18.88;30.23
39793;BME280;26080;42.264;24.536;2023-02-18T14:10:09;99538.03;;;18.49;30.82
39793;BME280;26080;42.264;24.536;2023-02-18T14:17:46;99549.72;;;18.47;31.84
39793;BME280;26080;42.264;24.536;2023-02-18T14:27:36;99541.50;;;18.39;31.68
39793;BME280;26080;42.264;24.536;2023-02-18T14:30:25;99543.75;;;18.32;31.32
39793;BME280;26080;42.264;24.536;2023-02-18T14:32:58;99533.34;;;18.18;31.82
39793;BME280;26080;42.264;24.536;2023-02-18T14:51:47;99544.09;;;17.92;32.45
39793;BME280;26080;42.264;24.536;2023-02-18T14:54:17;99540.81;;;17.89;32.56
39793;BME280;26080;42.264;24.536;2023-02-18T14:56:54;99538.06;;;17.90;31.87
39793;BME280;26080;42.264;24.536;2023-02-18T14:59:20;99539.31;;;17.61;32.88
39793;BME280;26080;42.264;24.536;2023-02-18T15:01:48;99536.72;;;17.35;33.50
39793;BME280;26080;42.264;24.536;2023-02-18T15:04:14;99522.28;;;17.03;34.28
39793;BME280;26080;42.264;24.536;2023-02-18T15:06:40;99529.50;;;16.88;35.08
39793;BME280;26080;42.264;24.536;2023-02-18T15:09:18;99539.25;;;16.87;35.30
39793;BME280;26080;42.264;24.536;2023-02-18T15:11:56;99533.69;;;16.65;35.87
39793;BME280;26080;42.264;24.536;2023-02-18T15:14:26;99522.88;;;16.43;36.61
39793;BME280;26080;42.264;24.536;2023-02-18T15:16:55;99546.38;;;16.47;37.48
39793;BME280;26080;42.264;24.536;2023-02-18T15:19:26;99533.25;;;16.33;37.02
39793;BME280;26080;42.264;24.536;2023-02-18T15:21:55;99548.66;;;16.26;36.90
39793;BME280;26080;42.264;24.536;2023-02-18T15:24:25;99544.75;;;16.19;37.02
39793;BME280;26080;42.264;24.536;2023-02-18T15:26:54;99554.41;;;16.06;37.35
39793;BME280;26080;42.264;24.536;2023-02-18T15:29:25;99552.59;;;15.94;37.46